Crackenback, Australia
Current Conditions -  °F | °C
As of 3:00 AM on Tuesday 23 Dec 2014 (Local Time) from YCOM Reporting Station
Overcast Overcast  
Wind Chill: 59°   Ceiling: 7300
Heat Index: 59°   Visibility: 5mi
Dew Point: 59°   Wind: 7mph
Humidity: 100%   Direction: 40°NE
Pressure: 29.97"   Gusts: NA
Location:  36.44°S, 148.51°E
Report Text: YCOM 221600Z AUTO 04006KT 8000 // SCT063 BKN073 OVC083 15/15 Q1015
Loading
Personal Weather Stations






























Interactive Weather Map New forecast layout! Learn more

10-Day Weather Forecast

Advertisements
Track Severe Weather on mobile